Concord, Georgia
Current Conditions -  °F | °C
As of 11:35 PM on Saturday 20 Dec 2014 (Local Time) from KOPN Reporting Station
Haze Haze  
Wind Chill: 52°   Ceiling: 500
Heat Index: 52°   Visibility: 4mi
Dew Point: 50°   Wind: 6mph
Humidity: 94%   Direction: 50°NE
Pressure: 30.2"   Gusts: NA
Location:  33.09°N, 84.44°W
Report Text: KOPN 210435Z AUTO 05005KT 4SM BR OVC005 11/10 A3020 RMK AO2
Loading
Personal Weather Stations






























Interactive Weather Map New forecast layout! Learn more

10-Day Weather Forecast

Advertisements
Track Severe Weather on mobile